createdAt,value
2019-01-08T00:00:15.690Z,1002.2
2019-01-08T00:03:15.379Z,1002.2
2019-01-08T00:06:15.157Z,1002.0
2019-01-08T00:09:15.797Z,1001.9
2019-01-08T00:12:15.366Z,1001.8
2019-01-08T00:15:15.936Z,1001.7
2019-01-08T00:18:15.666Z,1001.6
2019-01-08T00:21:15.407Z,1001.4
2019-01-08T00:24:15.056Z,1001.6
2019-01-08T00:27:15.668Z,1001.5
2019-01-08T00:30:15.421Z,1001.3
2019-01-08T00:33:15.265Z,1001.3
2019-01-08T00:36:15.007Z,1001.3
2019-01-08T00:39:15.729Z,1001.2
2019-01-08T00:42:15.474Z,1001.1
2019-01-08T00:45:15.270Z,1000.9
2019-01-08T00:48:15.071Z,1001.0
2019-01-08T00:51:15.720Z,1001.0
2019-01-08T00:54:15.358Z,1001.1
2019-01-08T00:57:15.092Z,1000.9
2019-01-08T01:00:15.594Z,1000.9
2019-01-08T01:03:15.166Z,1000.7
2019-01-08T01:06:15.857Z,1000.7
2019-01-08T01:09:15.552Z,1000.7
2019-01-08T01:12:15.270Z,1000.5
2019-01-08T01:15:15.555Z,1000.5
2019-01-08T01:18:15.242Z,1000.4
2019-01-08T01:21:14.990Z,1000.4
2019-01-08T01:24:15.737Z,1000.3
2019-01-08T01:27:15.330Z,1000.3
2019-01-08T01:30:15.258Z,1000.2
2019-01-08T01:33:15.941Z,1000.1
2019-01-08T01:36:15.560Z,1000.0
2019-01-08T01:39:15.318Z,1000.0
2019-01-08T01:42:15.284Z,1000.0
2019-01-08T01:45:14.957Z,999.9
2019-01-08T01:48:15.746Z,999.9
2019-01-08T01:51:15.472Z,999.9
2019-01-08T01:54:15.611Z,999.7
2019-01-08T01:57:15.490Z,999.8
2019-01-08T02:00:15.238Z,999.8
2019-01-08T02:03:14.949Z,999.7
2019-01-08T02:06:15.695Z,999.7
2019-01-08T02:09:15.524Z,999.7
2019-01-08T02:12:15.349Z,999.6
2019-01-08T02:15:14.851Z,999.7
2019-01-08T02:18:15.631Z,999.6
2019-01-08T02:21:15.671Z,999.6
2019-01-08T02:24:15.398Z,999.5
2019-01-08T02:27:15.035Z,999.5
2019-01-08T02:30:15.850Z,999.5
2019-01-08T02:33:15.571Z,999.5
2019-01-08T02:36:15.176Z,999.5
2019-01-08T02:39:15.858Z,999.3
2019-01-08T02:42:15.537Z,999.3
2019-01-08T02:45:15.238Z,999.2
2019-01-08T02:48:15.850Z,999.2
2019-01-08T02:51:15.754Z,999.1
2019-01-08T02:54:15.397Z,999.1
2019-01-08T02:57:20.537Z,999.0
2019-01-08T03:00:15.114Z,998.8
2019-01-08T03:03:15.735Z,998.8
2019-01-08T03:06:15.362Z,998.6
2019-01-08T03:09:15.055Z,998.6
2019-01-08T03:12:15.779Z,998.6
2019-01-08T03:15:15.395Z,998.5
2019-01-08T03:18:15.086Z,998.5
2019-01-08T03:21:15.840Z,998.4
2019-01-08T03:24:15.491Z,998.3
2019-01-08T03:27:15.316Z,998.4
2019-01-08T03:30:14.946Z,998.4
2019-01-08T03:33:15.849Z,998.5
2019-01-08T03:36:15.596Z,998.7
2019-01-08T03:39:15.290Z,998.9
2019-01-08T03:42:15.091Z,998.8
2019-01-08T03:45:15.007Z,998.8
2019-01-08T03:48:15.900Z,998.7
2019-01-08T03:51:15.828Z,998.5
2019-01-08T03:54:15.570Z,998.4
2019-01-08T03:57:15.455Z,998.4
2019-01-08T04:00:15.144Z,998.5
2019-01-08T04:03:15.979Z,998.4
2019-01-08T04:06:15.710Z,998.5
2019-01-08T04:09:15.618Z,998.5
2019-01-08T04:12:15.519Z,998.5
2019-01-08T04:15:15.351Z,998.5
2019-01-08T04:18:15.515Z,998.4
2019-01-08T04:21:15.321Z,998.5
2019-01-08T04:24:15.412Z,998.4
2019-01-08T04:27:15.144Z,998.3
2019-01-08T04:30:15.955Z,998.3
2019-01-08T04:33:15.799Z,998.2
2019-01-08T04:36:15.675Z,998.1
2019-01-08T04:39:15.627Z,998.2
2019-01-08T04:42:15.487Z,998.1
2019-01-08T04:45:15.350Z,998.1
2019-01-08T04:48:15.343Z,998.1
2019-01-08T04:51:15.086Z,997.9
2019-01-08T04:54:15.893Z,998.0
2019-01-08T04:57:15.628Z,998.0
2019-01-08T05:00:15.380Z,998.0
2019-01-08T05:03:15.085Z,998.0
2019-01-08T05:06:14.931Z,997.9
2019-01-08T05:09:15.792Z,997.9
2019-01-08T05:12:15.426Z,998.0
2019-01-08T05:15:15.162Z,998.1
2019-01-08T05:18:15.072Z,998.0
2019-01-08T05:21:15.895Z,998.0
2019-01-08T05:24:15.755Z,998.0
2019-01-08T05:27:15.827Z,998.0
2019-01-08T05:30:15.674Z,997.9
2019-01-08T05:33:15.337Z,997.9
2019-01-08T05:36:15.141Z,997.9
2019-01-08T05:39:14.978Z,997.8
2019-01-08T05:42:20.934Z,997.8
2019-01-08T05:45:15.665Z,997.8
2019-01-08T05:48:15.342Z,997.8
2019-01-08T05:51:15.226Z,997.8
2019-01-08T05:54:15.071Z,997.8
2019-01-08T05:57:15.160Z,997.8
2019-01-08T06:00:16.262Z,997.7
2019-01-08T06:03:15.321Z,997.7
2019-01-08T06:06:15.153Z,997.7
2019-01-08T06:09:15.580Z,997.7
2019-01-08T06:12:15.455Z,997.6
2019-01-08T06:15:15.403Z,997.6
2019-01-08T06:18:15.457Z,997.7
2019-01-08T06:21:15.494Z,997.7
2019-01-08T06:24:15.188Z,997.7
2019-01-08T06:27:14.961Z,997.6
2019-01-08T06:30:15.723Z,997.7
2019-01-08T06:33:15.617Z,997.6
2019-01-08T06:36:15.431Z,997.6
2019-01-08T06:39:15.316Z,997.5
2019-01-08T06:42:15.096Z,997.5
2019-01-08T06:45:16.072Z,997.4
2019-01-08T06:48:15.809Z,997.3
2019-01-08T06:51:15.792Z,997.4
2019-01-08T06:54:15.766Z,997.3
2019-01-08T06:57:15.522Z,997.4
2019-01-08T07:00:15.519Z,997.3
2019-01-08T07:03:15.549Z,997.2
2019-01-08T07:06:15.448Z,997.3
2019-01-08T07:09:15.411Z,997.2
2019-01-08T07:12:15.334Z,997.3
2019-01-08T07:15:15.216Z,997.3
2019-01-08T07:18:15.053Z,997.3
2019-01-08T07:21:15.964Z,997.2
2019-01-08T07:24:15.864Z,997.2
2019-01-08T07:27:16.634Z,997.2
2019-01-08T07:30:15.846Z,997.1
2019-01-08T07:33:15.599Z,997.1
2019-01-08T07:36:15.171Z,997.1
2019-01-08T07:39:14.979Z,997.1
2019-01-08T07:42:15.954Z,997.0
2019-01-08T07:45:15.745Z,996.9
2019-01-08T07:48:15.575Z,996.9
2019-01-08T07:51:15.609Z,996.9
2019-01-08T07:54:15.356Z,996.9
2019-01-08T07:57:15.288Z,996.9
2019-01-08T08:00:15.171Z,996.8
2019-01-08T08:03:15.490Z,996.9
2019-01-08T08:06:15.362Z,996.8
2019-01-08T08:09:15.483Z,996.7
2019-01-08T08:12:15.284Z,996.6
2019-01-08T08:15:15.168Z,996.7
2019-01-08T08:18:15.940Z,996.6
2019-01-08T08:21:15.727Z,996.6
2019-01-08T08:24:15.583Z,996.5
2019-01-08T08:27:15.399Z,996.5
2019-01-08T08:30:15.131Z,996.5
2019-01-08T08:33:15.165Z,996.3
2019-01-08T08:36:15.946Z,996.4
2019-01-08T08:39:15.028Z,996.4
2019-01-08T08:42:14.969Z,996.3
2019-01-08T08:45:15.843Z,996.2
2019-01-08T08:48:15.547Z,996.2
2019-01-08T08:51:15.261Z,996.3
2019-01-08T08:54:14.863Z,996.3
2019-01-08T08:57:15.663Z,996.3
2019-01-08T09:00:15.376Z,996.4
2019-01-08T09:03:15.267Z,996.4
2019-01-08T09:06:15.137Z,996.4
2019-01-08T09:09:15.000Z,996.5
2019-01-08T09:12:15.814Z,996.5
2019-01-08T09:15:15.565Z,996.5
2019-01-08T09:18:15.431Z,996.5
2019-01-08T09:21:15.232Z,996.5
2019-01-08T09:24:14.924Z,996.5
2019-01-08T09:27:15.726Z,996.4
2019-01-08T09:30:15.438Z,996.4
2019-01-08T09:33:15.234Z,996.5
2019-01-08T09:36:15.062Z,996.4
2019-01-08T09:39:15.931Z,996.6
2019-01-08T09:42:15.911Z,996.6
2019-01-08T09:45:15.914Z,996.5
2019-01-08T09:48:15.917Z,996.6
2019-01-08T09:51:15.691Z,996.7
2019-01-08T09:54:15.475Z,996.8
2019-01-08T09:57:15.461Z,996.8
2019-01-08T10:00:15.496Z,996.9
2019-01-08T10:03:15.302Z,996.8
2019-01-08T10:06:15.396Z,996.9
2019-01-08T10:09:15.148Z,996.8
2019-01-08T10:12:15.963Z,996.7
2019-01-08T10:15:15.868Z,996.7
2019-01-08T10:18:15.974Z,996.6
2019-01-08T10:21:15.825Z,996.6
2019-01-08T10:24:15.579Z,996.5
2019-01-08T10:27:15.468Z,996.4
2019-01-08T10:30:15.134Z,996.3
2019-01-08T10:33:14.921Z,996.2
2019-01-08T10:36:15.855Z,996.2
2019-01-08T10:39:15.746Z,996.2
2019-01-08T10:42:15.402Z,996.1
2019-01-08T10:45:15.404Z,996.1
2019-01-08T10:48:15.251Z,996.1
2019-01-08T10:51:15.148Z,996.1
2019-01-08T10:54:14.958Z,995.9
2019-01-08T10:57:15.871Z,995.9
2019-01-08T11:00:15.733Z,995.8
2019-01-08T11:03:15.627Z,995.8
2019-01-08T11:06:15.391Z,995.7
2019-01-08T11:09:15.288Z,995.6
2019-01-08T11:12:15.232Z,995.6
2019-01-08T11:15:15.127Z,995.5
2019-01-08T11:18:14.958Z,995.6
2019-01-08T11:21:15.901Z,995.5
2019-01-08T11:24:15.823Z,995.6
2019-01-08T11:27:15.617Z,995.6
2019-01-08T11:30:15.304Z,995.5
2019-01-08T11:33:15.049Z,995.5
2019-01-08T11:36:15.038Z,995.6
2019-01-08T11:39:15.828Z,995.5
2019-01-08T11:42:15.695Z,995.5
2019-01-08T11:45:15.573Z,995.5
2019-01-08T11:48:15.401Z,995.5
2019-01-08T11:51:15.283Z,995.4
2019-01-08T11:54:15.014Z,995.4
2019-01-08T11:57:15.905Z,995.3
2019-01-08T12:00:15.805Z,995.3
2019-01-08T12:03:15.999Z,995.3
2019-01-08T12:06:15.765Z,995.2
2019-01-08T12:09:15.663Z,995.0
2019-01-08T12:12:15.498Z,995.1
2019-01-08T12:15:15.673Z,994.9
2019-01-08T12:18:15.842Z,994.9
2019-01-08T12:21:15.645Z,994.9
2019-01-08T12:24:15.350Z,994.8
2019-01-08T12:27:15.071Z,994.8
2019-01-08T12:30:15.839Z,994.7
2019-01-08T12:33:15.830Z,994.7
2019-01-08T12:36:15.688Z,994.7
2019-01-08T12:39:15.529Z,994.7
2019-01-08T12:42:15.290Z,994.7
2019-01-08T12:45:15.096Z,994.6
2019-01-08T12:48:15.862Z,994.5
2019-01-08T12:51:15.986Z,994.4
2019-01-08T12:54:15.667Z,994.4
2019-01-08T12:57:15.441Z,994.4
2019-01-08T13:00:15.287Z,994.4
2019-01-08T13:03:15.125Z,994.4
2019-01-08T13:06:15.838Z,994.4
2019-01-08T13:09:15.637Z,994.3
2019-01-08T13:12:15.271Z,994.3
2019-01-08T13:15:15.151Z,994.3
2019-01-08T13:18:14.966Z,994.2
2019-01-08T13:21:15.912Z,994.2
2019-01-08T13:24:15.776Z,994.2
2019-01-08T13:27:15.611Z,994.2
2019-01-08T13:30:15.230Z,994.3
2019-01-08T13:33:15.352Z,994.2
2019-01-08T13:36:15.074Z,994.3
2019-01-08T13:39:15.904Z,994.3
2019-01-08T13:42:15.768Z,994.4
2019-01-08T13:45:15.717Z,994.3
2019-01-08T13:48:15.567Z,994.3
2019-01-08T13:51:15.681Z,994.3
2019-01-08T13:54:15.446Z,994.4
2019-01-08T13:57:15.268Z,994.3
2019-01-08T14:00:15.093Z,994.3
2019-01-08T14:03:15.055Z,994.3
2019-01-08T14:06:15.896Z,994.2
2019-01-08T14:09:15.734Z,994.3
2019-01-08T14:12:15.346Z,994.3
2019-01-08T14:15:15.125Z,994.3
2019-01-08T14:18:15.103Z,994.3
2019-01-08T14:21:14.992Z,994.4
2019-01-08T14:24:15.744Z,994.4
2019-01-08T14:27:14.918Z,994.3
2019-01-08T14:30:15.668Z,994.1
2019-01-08T14:33:15.458Z,994.3
2019-01-08T14:36:15.300Z,994.3
2019-01-08T14:39:15.265Z,994.4
2019-01-08T14:42:15.008Z,994.5
2019-01-08T14:45:14.980Z,994.5
2019-01-08T14:48:15.854Z,994.5
2019-01-08T14:51:15.088Z,994.5
2019-01-08T14:54:14.982Z,994.6
2019-01-08T14:57:15.958Z,994.6
2019-01-08T15:00:15.158Z,994.5
2019-01-08T15:03:15.163Z,994.6
2019-01-08T15:06:16.043Z,994.6
2019-01-08T15:09:15.009Z,994.7
2019-01-08T15:12:15.900Z,994.7
2019-01-08T15:15:15.744Z,994.7
2019-01-08T15:18:15.547Z,994.7
2019-01-08T15:21:15.381Z,994.7
2019-01-08T15:24:15.569Z,994.6
2019-01-08T15:27:15.809Z,994.6
2019-01-08T15:30:15.019Z,994.6
2019-01-08T15:33:15.940Z,994.7
2019-01-08T15:36:15.841Z,994.9
2019-01-08T15:39:15.668Z,995.0
2019-01-08T15:42:15.440Z,995.0
2019-01-08T15:45:15.307Z,995.1
2019-01-08T15:48:15.063Z,995.0
2019-01-08T15:51:15.965Z,995.0
2019-01-08T15:54:15.444Z,994.9
2019-01-08T15:57:15.258Z,995.0
2019-01-08T16:00:15.602Z,994.9
2019-01-08T16:03:15.550Z,995.0
2019-01-08T16:06:15.433Z,995.0
2019-01-08T16:09:15.422Z,995.1
2019-01-08T16:12:15.252Z,995.1
2019-01-08T16:15:15.032Z,995.0
2019-01-08T16:18:16.047Z,995.0
2019-01-08T16:21:14.981Z,995.0
2019-01-08T16:24:15.857Z,995.0
2019-01-08T16:27:15.583Z,995.0
2019-01-08T16:30:15.304Z,995.1
2019-01-08T16:33:16.490Z,995.2
2019-01-08T16:36:15.446Z,995.1
2019-01-08T16:39:15.707Z,995.1
2019-01-08T16:42:15.167Z,995.2
2019-01-08T16:45:15.205Z,995.2
2019-01-08T16:48:15.118Z,995.1
2019-01-08T16:51:15.923Z,995.2
2019-01-08T16:54:15.751Z,995.2
2019-01-08T16:57:15.701Z,995.3
2019-01-08T17:00:15.487Z,995.3
2019-01-08T17:03:15.218Z,995.4
2019-01-08T17:06:15.191Z,995.4
2019-01-08T17:09:15.183Z,995.4
2019-01-08T17:12:15.974Z,995.6
2019-01-08T17:15:15.686Z,995.7
2019-01-08T17:18:15.657Z,995.8
2019-01-08T17:21:15.495Z,995.6
2019-01-08T17:24:15.371Z,995.4
2019-01-08T17:27:15.806Z,995.6
2019-01-08T17:30:15.828Z,995.6
2019-01-08T17:33:15.613Z,995.5
2019-01-08T17:36:15.846Z,995.4
2019-01-08T17:39:15.611Z,995.5
2019-01-08T17:42:15.407Z,995.5
2019-01-08T17:45:15.383Z,995.5
2019-01-08T17:48:15.221Z,995.4
2019-01-08T17:51:15.124Z,995.3
2019-01-08T17:54:16.167Z,995.4
2019-01-08T17:57:15.228Z,995.4
2019-01-08T18:00:15.938Z,995.4
2019-01-08T18:03:15.777Z,995.3
2019-01-08T18:06:15.567Z,995.4
2019-01-08T18:09:15.537Z,995.3
2019-01-08T18:12:15.413Z,995.4
2019-01-08T18:15:15.195Z,995.3
2019-01-08T18:18:15.102Z,995.2
2019-01-08T18:21:15.263Z,995.2
2019-01-08T18:24:15.124Z,995.3
2019-01-08T18:27:15.175Z,995.3
2019-01-08T18:30:15.102Z,995.3
2019-01-08T18:33:15.086Z,995.2
2019-01-08T18:36:15.121Z,995.2
2019-01-08T18:39:15.911Z,995.2
2019-01-08T18:42:15.666Z,995.0
2019-01-08T18:45:15.914Z,995.1
2019-01-08T18:48:15.621Z,995.0
2019-01-08T18:51:15.453Z,995.1
2019-01-08T18:54:15.268Z,995.1
2019-01-08T18:57:15.267Z,995.2
2019-01-08T19:00:15.135Z,995.1
2019-01-08T19:03:15.872Z,995.2
2019-01-08T19:06:15.566Z,995.2
2019-01-08T19:09:15.293Z,995.3
2019-01-08T19:12:15.352Z,995.2
2019-01-08T19:15:15.117Z,995.2
2019-01-08T19:18:15.293Z,995.1
2019-01-08T19:21:15.134Z,995.1
2019-01-08T19:24:15.140Z,995.1
2019-01-08T19:27:15.915Z,994.9
2019-01-08T19:30:17.065Z,994.8
2019-01-08T19:33:20.881Z,994.9
2019-01-08T19:36:15.768Z,994.9
2019-01-08T19:39:15.791Z,994.7
2019-01-08T19:42:15.896Z,994.8
2019-01-08T19:45:15.713Z,994.7
2019-01-08T19:48:15.334Z,994.8
2019-01-08T19:51:15.934Z,994.8
2019-01-08T19:54:15.818Z,994.8
2019-01-08T19:57:15.671Z,994.9
2019-01-08T20:00:15.588Z,994.9
2019-01-08T20:03:15.197Z,995.0
2019-01-08T20:06:15.231Z,995.3
2019-01-08T20:09:15.666Z,995.3
2019-01-08T20:12:15.188Z,995.3
2019-01-08T20:15:15.824Z,995.5
2019-01-08T20:18:15.867Z,995.3
2019-01-08T20:21:15.206Z,995.1
2019-01-08T20:24:15.431Z,995.2
2019-01-08T20:27:15.768Z,995.1
2019-01-08T20:30:20.507Z,995.1
2019-01-08T20:33:16.950Z,995.1
2019-01-08T20:36:16.145Z,995.0
2019-01-08T20:39:15.585Z,994.9
2019-01-08T20:42:15.714Z,994.8
2019-01-08T20:45:15.505Z,994.7
2019-01-08T20:48:15.243Z,994.6
2019-01-08T20:51:15.266Z,994.6
2019-01-08T20:54:15.666Z,994.6
2019-01-08T20:57:15.473Z,994.6
2019-01-08T21:00:15.798Z,994.5
2019-01-08T21:03:15.708Z,994.5
2019-01-08T21:06:15.478Z,994.5
2019-01-08T21:09:15.361Z,994.6
2019-01-08T21:12:15.520Z,994.6
2019-01-08T21:15:15.186Z,994.7
2019-01-08T21:18:15.302Z,994.8
2019-01-08T21:21:15.226Z,994.8
2019-01-08T21:24:15.209Z,994.7
2019-01-08T21:27:15.219Z,994.8
2019-01-08T21:30:15.242Z,994.9
2019-01-08T21:33:15.317Z,995.1
2019-01-08T21:36:15.337Z,995.1
2019-01-08T21:39:15.720Z,995.1
2019-01-08T21:42:15.271Z,994.9
2019-01-08T21:45:15.250Z,994.9
2019-01-08T21:48:15.249Z,994.7
2019-01-08T21:51:15.360Z,994.7
2019-01-08T21:54:15.454Z,994.8
2019-01-08T21:57:15.244Z,994.9
2019-01-08T22:00:15.238Z,995.0
2019-01-08T22:03:15.292Z,994.9
2019-01-08T22:06:15.283Z,994.9
2019-01-08T22:09:15.318Z,994.8
2019-01-08T22:12:15.250Z,994.6
2019-01-08T22:15:15.269Z,994.6
2019-01-08T22:18:15.321Z,994.5
2019-01-08T22:21:15.633Z,994.4
2019-01-08T22:24:15.407Z,994.5
2019-01-08T22:27:15.338Z,994.5
2019-01-08T22:30:15.311Z,994.4
2019-01-08T22:33:16.753Z,994.5
2019-01-08T22:36:15.667Z,994.5
2019-01-08T22:39:15.471Z,994.5
2019-01-08T22:42:15.286Z,994.5
2019-01-08T22:45:15.204Z,994.3
2019-01-08T22:48:15.301Z,994.3
2019-01-08T22:51:15.343Z,994.4
2019-01-08T22:54:15.318Z,994.2
2019-01-08T22:57:15.221Z,994.2
2019-01-08T23:00:15.220Z,994.2
2019-01-08T23:03:15.525Z,994.2
2019-01-08T23:06:15.363Z,994.1
2019-01-08T23:09:15.306Z,994.1
2019-01-08T23:12:15.222Z,994.1
2019-01-08T23:15:15.179Z,994.0
2019-01-08T23:18:15.239Z,993.9
2019-01-08T23:21:15.328Z,993.9
2019-01-08T23:24:15.294Z,993.9
2019-01-08T23:27:15.244Z,993.9
2019-01-08T23:30:15.284Z,993.7
2019-01-08T23:33:15.206Z,993.6
2019-01-08T23:36:15.288Z,993.8
2019-01-08T23:39:15.312Z,993.8
2019-01-08T23:42:15.386Z,993.8
2019-01-08T23:45:15.248Z,993.7
2019-01-08T23:48:15.255Z,993.8
2019-01-08T23:51:15.333Z,993.7
2019-01-08T23:54:15.303Z,994.0
2019-01-08T23:57:15.514Z,993.9
